sensor_id;sensor_type;location;lat;lon;timestamp;P1;durP1;ratioP1;P2;durP2;ratioP2
22060;SDS011;11194;48.092;-1.382;2023-11-19T00:00:20;306.05;;;291.25;;
22060;SDS011;11194;48.092;-1.382;2023-11-19T00:02:46;304.17;;;289.15;;
22060;SDS011;11194;48.092;-1.382;2023-11-19T00:05:12;313.88;;;298.45;;
22060;SDS011;11194;48.092;-1.382;2023-11-19T00:07:38;309.77;;;294.58;;
22060;SDS011;11194;48.092;-1.382;2023-11-19T00:10:11;306.75;;;291.45;;
22060;SDS011;11194;48.092;-1.382;2023-11-19T00:12:38;310.60;;;295.23;;
22060;SDS011;11194;48.092;-1.382;2023-11-19T00:15:05;323.15;;;307.42;;
22060;SDS011;11194;48.092;-1.382;2023-11-19T00:17:33;326.65;;;310.65;;
22060;SDS011;11194;48.092;-1.382;2023-11-19T00:20:00;328.83;;;312.73;;
22060;SDS011;11194;48.092;-1.382;2023-11-19T00:22:30;334.90;;;318.67;;
22060;SDS011;11194;48.092;-1.382;2023-11-19T00:24:56;318.10;;;302.65;;
22060;SDS011;11194;48.092;-1.382;2023-11-19T00:27:22;321.08;;;305.35;;
22060;SDS011;11194;48.092;-1.382;2023-11-19T00:29:48;347.15;;;330.33;;
22060;SDS011;11194;48.092;-1.382;2023-11-19T00:32:14;323.63;;;307.90;;
22060;SDS011;11194;48.092;-1.382;2023-11-19T00:34:43;333.05;;;316.80;;
22060;SDS011;11194;48.092;-1.382;2023-11-19T00:37:09;331.73;;;315.48;;
22060;SDS011;11194;48.092;-1.382;2023-11-19T00:39:35;321.83;;;306.08;;
22060;SDS011;11194;48.092;-1.382;2023-11-19T00:42:01;317.38;;;301.90;;
22060;SDS011;11194;48.092;-1.382;2023-11-19T00:44:27;325.50;;;309.60;;
22060;SDS011;11194;48.092;-1.382;2023-11-19T00:46:53;330.42;;;314.23;;
22060;SDS011;11194;48.092;-1.382;2023-11-19T00:49:19;321.38;;;305.75;;
22060;SDS011;11194;48.092;-1.382;2023-11-19T00:51:45;315.98;;;300.73;;
22060;SDS011;11194;48.092;-1.382;2023-11-19T00:54:11;310.40;;;295.33;;
22060;SDS011;11194;48.092;-1.382;2023-11-19T00:56:37;367.35;;;348.70;;
22060;SDS011;11194;48.092;-1.382;2023-11-19T00:59:03;407.20;;;386.05;;
22060;SDS011;11194;48.092;-1.382;2023-11-19T01:01:29;332.80;;;316.80;;
22060;SDS011;11194;48.092;-1.382;2023-11-19T01:03:55;310.30;;;295.60;;
22060;SDS011;11194;48.092;-1.382;2023-11-19T01:06:30;311.98;;;297.23;;
22060;SDS011;11194;48.092;-1.382;2023-11-19T01:08:57;309.45;;;294.75;;
22060;SDS011;11194;48.092;-1.382;2023-11-19T01:11:24;295.63;;;281.55;;
22060;SDS011;11194;48.092;-1.382;2023-11-19T01:13:50;296.92;;;282.80;;
22060;SDS011;11194;48.092;-1.382;2023-11-19T01:16:17;305.35;;;290.75;;
22060;SDS011;11194;48.092;-1.382;2023-11-19T01:18:43;286.88;;;273.23;;
22060;SDS011;11194;48.092;-1.382;2023-11-19T01:21:10;263.88;;;251.52;;
22060;SDS011;11194;48.092;-1.382;2023-11-19T01:23:36;261.25;;;248.98;;
22060;SDS011;11194;48.092;-1.382;2023-11-19T01:26:02;258.63;;;246.68;;
22060;SDS011;11194;48.092;-1.382;2023-11-19T01:28:30;265.27;;;252.98;;
22060;SDS011;11194;48.092;-1.382;2023-11-19T01:30:56;249.85;;;238.15;;
22060;SDS011;11194;48.092;-1.382;2023-11-19T01:33:22;259.60;;;247.55;;
22060;SDS011;11194;48.092;-1.382;2023-11-19T01:35:48;270.20;;;257.65;;
22060;SDS011;11194;48.092;-1.382;2023-11-19T01:38:14;323.52;;;308.67;;
22060;SDS011;11194;48.092;-1.382;2023-11-19T01:40:41;288.33;;;275.13;;
22060;SDS011;11194;48.092;-1.382;2023-11-19T01:43:09;257.85;;;245.80;;
22060;SDS011;11194;48.092;-1.382;2023-11-19T01:45:40;272.98;;;260.05;;
22060;SDS011;11194;48.092;-1.382;2023-11-19T01:48:06;265.95;;;253.63;;
22060;SDS011;11194;48.092;-1.382;2023-11-19T01:50:34;268.58;;;256.25;;
22060;SDS011;11194;48.092;-1.382;2023-11-19T01:53:01;272.42;;;259.88;;
22060;SDS011;11194;48.092;-1.382;2023-11-19T01:55:27;253.68;;;242.23;;
22060;SDS011;11194;48.092;-1.382;2023-11-19T01:57:54;246.88;;;235.65;;
22060;SDS011;11194;48.092;-1.382;2023-11-19T02:00:23;240.90;;;230.00;;
22060;SDS011;11194;48.092;-1.382;2023-11-19T02:02:49;240.18;;;229.27;;
22060;SDS011;11194;48.092;-1.382;2023-11-19T02:05:17;251.38;;;239.90;;
22060;SDS011;11194;48.092;-1.382;2023-11-19T02:07:43;204.98;;;195.57;;
22060;SDS011;11194;48.092;-1.382;2023-11-19T02:10:11;260.50;;;248.90;;
22060;SDS011;11194;48.092;-1.382;2023-11-19T02:12:42;254.30;;;242.82;;
22060;SDS011;11194;48.092;-1.382;2023-11-19T02:15:09;242.90;;;231.95;;
22060;SDS011;11194;48.092;-1.382;2023-11-19T02:17:35;223.05;;;213.07;;
22060;SDS011;11194;48.092;-1.382;2023-11-19T02:20:04;224.13;;;214.13;;
22060;SDS011;11194;48.092;-1.382;2023-11-19T02:22:34;227.73;;;217.57;;
22060;SDS011;11194;48.092;-1.382;2023-11-19T02:25:03;224.18;;;214.27;;
22060;SDS011;11194;48.092;-1.382;2023-11-19T02:30:16;236.30;;;225.82;;
22060;SDS011;11194;48.092;-1.382;2023-11-19T02:32:42;224.88;;;214.90;;
22060;SDS011;11194;48.092;-1.382;2023-11-19T02:35:08;225.98;;;216.07;;
22060;SDS011;11194;48.092;-1.382;2023-11-19T02:37:34;228.38;;;218.32;;
22060;SDS011;11194;48.092;-1.382;2023-11-19T02:40:00;238.20;;;227.60;;
22060;SDS011;11194;48.092;-1.382;2023-11-19T02:42:30;212.60;;;203.23;;
22060;SDS011;11194;48.092;-1.382;2023-11-19T02:44:57;239.50;;;229.15;;
22060;SDS011;11194;48.092;-1.382;2023-11-19T02:47:23;252.63;;;241.63;;
22060;SDS011;11194;48.092;-1.382;2023-11-19T02:49:50;250.27;;;239.32;;
22060;SDS011;11194;48.092;-1.382;2023-11-19T02:52:16;254.73;;;243.57;;
22060;SDS011;11194;48.092;-1.382;2023-11-19T02:54:42;257.80;;;246.52;;
22060;SDS011;11194;48.092;-1.382;2023-11-19T02:57:08;256.85;;;245.40;;
22060;SDS011;11194;48.092;-1.382;2023-11-19T02:59:37;259.50;;;248.00;;
22060;SDS011;11194;48.092;-1.382;2023-11-19T03:02:07;261.27;;;249.52;;
22060;SDS011;11194;48.092;-1.382;2023-11-19T03:04:36;268.02;;;255.82;;
22060;SDS011;11194;48.092;-1.382;2023-11-19T03:07:04;269.85;;;257.67;;
22060;SDS011;11194;48.092;-1.382;2023-11-19T03:09:30;273.73;;;261.33;;
22060;SDS011;11194;48.092;-1.382;2023-11-19T03:11:56;280.80;;;268.40;;
22060;SDS011;11194;48.092;-1.382;2023-11-19T03:14:22;252.75;;;241.25;;
22060;SDS011;11194;48.092;-1.382;2023-11-19T03:16:48;256.02;;;244.32;;
22060;SDS011;11194;48.092;-1.382;2023-11-19T03:19:15;260.42;;;248.70;;
22060;SDS011;11194;48.092;-1.382;2023-11-19T03:21:41;275.90;;;263.33;;
22060;SDS011;11194;48.092;-1.382;2023-11-19T03:24:07;273.80;;;261.45;;
22060;SDS011;11194;48.092;-1.382;2023-11-19T03:26:34;281.65;;;268.77;;
22060;SDS011;11194;48.092;-1.382;2023-11-19T03:29:00;238.85;;;227.98;;
22060;SDS011;11194;48.092;-1.382;2023-11-19T03:31:26;255.23;;;243.73;;
22060;SDS011;11194;48.092;-1.382;2023-11-19T03:33:52;248.82;;;237.52;;
22060;SDS011;11194;48.092;-1.382;2023-11-19T03:36:18;271.83;;;259.50;;
22060;SDS011;11194;48.092;-1.382;2023-11-19T03:38:44;269.92;;;257.55;;
22060;SDS011;11194;48.092;-1.382;2023-11-19T03:41:14;277.80;;;265.17;;
22060;SDS011;11194;48.092;-1.382;2023-11-19T03:43:42;268.38;;;255.98;;
22060;SDS011;11194;48.092;-1.382;2023-11-19T03:48:43;302.70;;;288.67;;
22060;SDS011;11194;48.092;-1.382;2023-11-19T03:51:09;288.42;;;275.00;;
22060;SDS011;11194;48.092;-1.382;2023-11-19T03:53:37;284.25;;;270.98;;
22060;SDS011;11194;48.092;-1.382;2023-11-19T03:56:03;299.90;;;285.95;;
22060;SDS011;11194;48.092;-1.382;2023-11-19T03:58:29;304.00;;;289.52;;
22060;SDS011;11194;48.092;-1.382;2023-11-19T04:00:55;303.60;;;289.30;;
22060;SDS011;11194;48.092;-1.382;2023-11-19T04:03:21;314.48;;;299.63;;
22060;SDS011;11194;48.092;-1.382;2023-11-19T04:05:47;334.65;;;319.05;;
22060;SDS011;11194;48.092;-1.382;2023-11-19T04:08:13;325.52;;;309.95;;
22060;SDS011;11194;48.092;-1.382;2023-11-19T04:10:39;344.70;;;328.33;;
22060;SDS011;11194;48.092;-1.382;2023-11-19T04:13:05;333.52;;;317.33;;
22060;SDS011;11194;48.092;-1.382;2023-11-19T04:15:31;323.90;;;308.25;;
22060;SDS011;11194;48.092;-1.382;2023-11-19T04:17:57;322.95;;;307.45;;
22060;SDS011;11194;48.092;-1.382;2023-11-19T04:20:23;338.42;;;322.20;;
22060;SDS011;11194;48.092;-1.382;2023-11-19T04:22:50;324.42;;;308.67;;
22060;SDS011;11194;48.092;-1.382;2023-11-19T04:25:16;332.55;;;316.33;;
22060;SDS011;11194;48.092;-1.382;2023-11-19T04:27:44;335.35;;;319.08;;
22060;SDS011;11194;48.092;-1.382;2023-11-19T04:30:11;322.13;;;306.48;;
22060;SDS011;11194;48.092;-1.382;2023-11-19T04:32:37;327.17;;;311.27;;
22060;SDS011;11194;48.092;-1.382;2023-11-19T04:35:03;330.15;;;314.08;;
22060;SDS011;11194;48.092;-1.382;2023-11-19T04:37:29;341.33;;;324.85;;
22060;SDS011;11194;48.092;-1.382;2023-11-19T04:39:55;331.83;;;315.80;;
22060;SDS011;11194;48.092;-1.382;2023-11-19T04:42:22;329.15;;;313.00;;
22060;SDS011;11194;48.092;-1.382;2023-11-19T04:44:49;328.92;;;312.88;;
22060;SDS011;11194;48.092;-1.382;2023-11-19T04:47:15;341.10;;;324.35;;
22060;SDS011;11194;48.092;-1.382;2023-11-19T04:49:41;344.95;;;328.17;;
22060;SDS011;11194;48.092;-1.382;2023-11-19T04:52:08;350.08;;;333.08;;
22060;SDS011;11194;48.092;-1.382;2023-11-19T04:54:34;318.25;;;302.58;;
22060;SDS011;11194;48.092;-1.382;2023-11-19T04:57:00;346.00;;;329.17;;
22060;SDS011;11194;48.092;-1.382;2023-11-19T04:59:26;328.02;;;311.77;;
22060;SDS011;11194;48.092;-1.382;2023-11-19T05:01:52;328.17;;;312.52;;
22060;SDS011;11194;48.092;-1.382;2023-11-19T05:04:18;329.48;;;313.88;;
22060;SDS011;11194;48.092;-1.382;2023-11-19T05:06:44;334.40;;;318.63;;
22060;SDS011;11194;48.092;-1.382;2023-11-19T05:09:10;353.23;;;336.40;;
22060;SDS011;11194;48.092;-1.382;2023-11-19T05:11:38;348.75;;;332.13;;
22060;SDS011;11194;48.092;-1.382;2023-11-19T05:14:05;358.77;;;341.58;;
22060;SDS011;11194;48.092;-1.382;2023-11-19T05:16:31;349.33;;;332.52;;
22060;SDS011;11194;48.092;-1.382;2023-11-19T05:18:57;352.00;;;335.23;;
22060;SDS011;11194;48.092;-1.382;2023-11-19T05:21:24;361.35;;;344.35;;
22060;SDS011;11194;48.092;-1.382;2023-11-19T05:23:50;357.98;;;340.85;;
22060;SDS011;11194;48.092;-1.382;2023-11-19T05:26:19;373.40;;;355.77;;
22060;SDS011;11194;48.092;-1.382;2023-11-19T05:28:45;359.38;;;341.75;;
22060;SDS011;11194;48.092;-1.382;2023-11-19T05:31:11;362.45;;;345.30;;
22060;SDS011;11194;48.092;-1.382;2023-11-19T05:33:37;353.50;;;336.70;;
22060;SDS011;11194;48.092;-1.382;2023-11-19T05:36:04;372.48;;;354.60;;
22060;SDS011;11194;48.092;-1.382;2023-11-19T05:38:30;368.27;;;350.95;;
22060;SDS011;11194;48.092;-1.382;2023-11-19T05:40:56;363.52;;;346.20;;
22060;SDS011;11194;48.092;-1.382;2023-11-19T05:43:23;356.73;;;339.65;;
22060;SDS011;11194;48.092;-1.382;2023-11-19T05:45:49;367.42;;;349.85;;
22060;SDS011;11194;48.092;-1.382;2023-11-19T05:48:15;352.50;;;335.58;;
22060;SDS011;11194;48.092;-1.382;2023-11-19T05:50:41;351.73;;;334.65;;
22060;SDS011;11194;48.092;-1.382;2023-11-19T05:53:07;344.10;;;327.55;;
22060;SDS011;11194;48.092;-1.382;2023-11-19T05:55:39;339.15;;;323.00;;
22060;SDS011;11194;48.092;-1.382;2023-11-19T05:58:13;326.00;;;310.27;;
22060;SDS011;11194;48.092;-1.382;2023-11-19T06:00:39;350.45;;;333.83;;
22060;SDS011;11194;48.092;-1.382;2023-11-19T06:03:08;358.25;;;341.15;;
22060;SDS011;11194;48.092;-1.382;2023-11-19T06:05:34;343.27;;;327.08;;
22060;SDS011;11194;48.092;-1.382;2023-11-19T06:08:00;338.75;;;322.90;;
22060;SDS011;11194;48.092;-1.382;2023-11-19T06:10:27;351.67;;;335.10;;
22060;SDS011;11194;48.092;-1.382;2023-11-19T06:12:59;343.52;;;327.35;;
22060;SDS011;11194;48.092;-1.382;2023-11-19T06:15:26;327.92;;;312.67;;
22060;SDS011;11194;48.092;-1.382;2023-11-19T06:17:55;469.95;;;446.42;;
22060;SDS011;11194;48.092;-1.382;2023-11-19T06:20:23;320.45;;;305.40;;
22060;SDS011;11194;48.092;-1.382;2023-11-19T06:22:50;334.58;;;319.00;;
22060;SDS011;11194;48.092;-1.382;2023-11-19T06:25:16;328.70;;;313.60;;
22060;SDS011;11194;48.092;-1.382;2023-11-19T06:27:43;316.20;;;301.38;;
22060;SDS011;11194;48.092;-1.382;2023-11-19T06:30:09;327.73;;;312.20;;
22060;SDS011;11194;48.092;-1.382;2023-11-19T06:32:36;322.52;;;307.48;;
22060;SDS011;11194;48.092;-1.382;2023-11-19T06:35:02;329.67;;;313.92;;
22060;SDS011;11194;48.092;-1.382;2023-11-19T06:37:29;316.65;;;301.83;;
22060;SDS011;11194;48.092;-1.382;2023-11-19T06:39:55;337.77;;;321.92;;
22060;SDS011;11194;48.092;-1.382;2023-11-19T06:42:22;314.55;;;300.00;;
22060;SDS011;11194;48.092;-1.382;2023-11-19T06:44:48;317.52;;;302.55;;
22060;SDS011;11194;48.092;-1.382;2023-11-19T06:47:14;348.13;;;332.13;;
22060;SDS011;11194;48.092;-1.382;2023-11-19T06:49:43;329.10;;;313.85;;
22060;SDS011;11194;48.092;-1.382;2023-11-19T06:52:09;341.00;;;325.15;;
22060;SDS011;11194;48.092;-1.382;2023-11-19T06:54:35;346.60;;;330.10;;
22060;SDS011;11194;48.092;-1.382;2023-11-19T06:57:01;336.35;;;320.45;;
22060;SDS011;11194;48.092;-1.382;2023-11-19T06:59:28;309.83;;;295.17;;
22060;SDS011;11194;48.092;-1.382;2023-11-19T07:01:54;346.52;;;330.05;;
22060;SDS011;11194;48.092;-1.382;2023-11-19T07:04:21;340.98;;;324.73;;
22060;SDS011;11194;48.092;-1.382;2023-11-19T07:06:47;331.40;;;315.27;;
22060;SDS011;11194;48.092;-1.382;2023-11-19T07:09:14;332.80;;;316.80;;
22060;SDS011;11194;48.092;-1.382;2023-11-19T07:11:41;338.60;;;322.33;;
22060;SDS011;11194;48.092;-1.382;2023-11-19T07:14:07;332.05;;;316.23;;
22060;SDS011;11194;48.092;-1.382;2023-11-19T07:16:37;329.58;;;313.73;;
22060;SDS011;11194;48.092;-1.382;2023-11-19T07:19:04;345.42;;;328.52;;
22060;SDS011;11194;48.092;-1.382;2023-11-19T07:21:33;340.27;;;323.52;;
22060;SDS011;11194;48.092;-1.382;2023-11-19T07:23:59;335.13;;;318.52;;
22060;SDS011;11194;48.092;-1.382;2023-11-19T07:26:25;338.90;;;322.08;;
22060;SDS011;11194;48.092;-1.382;2023-11-19T07:28:52;322.60;;;306.80;;
22060;SDS011;11194;48.092;-1.382;2023-11-19T07:31:18;314.83;;;299.58;;
22060;SDS011;11194;48.092;-1.382;2023-11-19T07:33:44;288.65;;;274.45;;
22060;SDS011;11194;48.092;-1.382;2023-11-19T07:36:11;303.48;;;288.42;;
22060;SDS011;11194;48.092;-1.382;2023-11-19T07:38:38;300.90;;;285.98;;
22060;SDS011;11194;48.092;-1.382;2023-11-19T07:41:07;290.55;;;276.08;;
22060;SDS011;11194;48.092;-1.382;2023-11-19T07:43:37;304.60;;;289.30;;
22060;SDS011;11194;48.092;-1.382;2023-11-19T07:46:03;280.38;;;266.83;;
22060;SDS011;11194;48.092;-1.382;2023-11-19T07:48:29;299.45;;;284.73;;
22060;SDS011;11194;48.092;-1.382;2023-11-19T07:50:56;293.85;;;279.02;;
22060;SDS011;11194;48.092;-1.382;2023-11-19T07:53:22;295.27;;;280.48;;
22060;SDS011;11194;48.092;-1.382;2023-11-19T07:55:48;326.13;;;309.75;;
22060;SDS011;11194;48.092;-1.382;2023-11-19T07:58:14;314.25;;;298.58;;
22060;SDS011;11194;48.092;-1.382;2023-11-19T08:00:41;297.45;;;282.52;;
22060;SDS011;11194;48.092;-1.382;2023-11-19T08:03:07;294.25;;;279.73;;
22060;SDS011;11194;48.092;-1.382;2023-11-19T08:05:33;301.58;;;286.67;;
22060;SDS011;11194;48.092;-1.382;2023-11-19T08:07:59;302.85;;;287.95;;
22060;SDS011;11194;48.092;-1.382;2023-11-19T08:10:26;319.80;;;303.80;;
22060;SDS011;11194;48.092;-1.382;2023-11-19T08:12:52;304.10;;;289.10;;
22060;SDS011;11194;48.092;-1.382;2023-11-19T08:15:18;322.90;;;307.33;;
22060;SDS011;11194;48.092;-1.382;2023-11-19T08:17:44;329.65;;;313.45;;
22060;SDS011;11194;48.092;-1.382;2023-11-19T08:20:10;291.02;;;276.52;;
22060;SDS011;11194;48.092;-1.382;2023-11-19T08:22:37;305.20;;;290.23;;
22060;SDS011;11194;48.092;-1.382;2023-11-19T08:25:06;319.33;;;303.52;;
22060;SDS011;11194;48.092;-1.382;2023-11-19T08:27:32;320.15;;;304.42;;
22060;SDS011;11194;48.092;-1.382;2023-11-19T08:29:58;318.20;;;301.95;;
22060;SDS011;11194;48.092;-1.382;2023-11-19T08:32:25;320.95;;;304.90;;
22060;SDS011;11194;48.092;-1.382;2023-11-19T08:34:51;342.35;;;325.55;;
22060;SDS011;11194;48.092;-1.382;2023-11-19T08:37:17;347.13;;;330.15;;
22060;SDS011;11194;48.092;-1.382;2023-11-19T08:39:46;337.17;;;320.38;;
22060;SDS011;11194;48.092;-1.382;2023-11-19T08:42:12;342.70;;;325.63;;
22060;SDS011;11194;48.092;-1.382;2023-11-19T08:44:38;315.05;;;299.52;;
22060;SDS011;11194;48.092;-1.382;2023-11-19T08:47:04;317.15;;;301.92;;
22060;SDS011;11194;48.092;-1.382;2023-11-19T08:49:30;307.42;;;292.73;;
22060;SDS011;11194;48.092;-1.382;2023-11-19T08:51:56;312.85;;;297.90;;
22060;SDS011;11194;48.092;-1.382;2023-11-19T08:54:22;304.90;;;290.38;;
22060;SDS011;11194;48.092;-1.382;2023-11-19T08:56:48;277.00;;;263.63;;
22060;SDS011;11194;48.092;-1.382;2023-11-19T08:59:15;275.40;;;262.33;;
22060;SDS011;11194;48.092;-1.382;2023-11-19T09:01:42;288.33;;;274.65;;
22060;SDS011;11194;48.092;-1.382;2023-11-19T09:04:08;289.80;;;275.73;;
22060;SDS011;11194;48.092;-1.382;2023-11-19T09:06:35;310.15;;;295.13;;
22060;SDS011;11194;48.092;-1.382;2023-11-19T09:09:01;308.33;;;293.33;;
22060;SDS011;11194;48.092;-1.382;2023-11-19T09:11:28;299.77;;;285.33;;
22060;SDS011;11194;48.092;-1.382;2023-11-19T09:13:54;295.30;;;281.33;;
22060;SDS011;11194;48.092;-1.382;2023-11-19T09:16:20;286.40;;;272.77;;
22060;SDS011;11194;48.092;-1.382;2023-11-19T09:18:46;298.00;;;283.98;;
22060;SDS011;11194;48.092;-1.382;2023-11-19T09:21:12;286.95;;;273.52;;
22060;SDS011;11194;48.092;-1.382;2023-11-19T09:23:38;287.65;;;274.17;;
22060;SDS011;11194;48.092;-1.382;2023-11-19T09:26:05;289.23;;;275.85;;
22060;SDS011;11194;48.092;-1.382;2023-11-19T09:28:32;307.90;;;293.58;;
22060;SDS011;11194;48.092;-1.382;2023-11-19T09:30:58;325.40;;;310.42;;
22060;SDS011;11194;48.092;-1.382;2023-11-19T09:33:24;322.33;;;307.67;;
22060;SDS011;11194;48.092;-1.382;2023-11-19T09:35:50;338.45;;;323.17;;
22060;SDS011;11194;48.092;-1.382;2023-11-19T09:38:16;380.25;;;362.95;;
22060;SDS011;11194;48.092;-1.382;2023-11-19T09:40:42;397.90;;;379.50;;
22060;SDS011;11194;48.092;-1.382;2023-11-19T09:43:08;376.33;;;359.33;;
22060;SDS011;11194;48.092;-1.382;2023-11-19T09:45:40;395.30;;;377.58;;
22060;SDS011;11194;48.092;-1.382;2023-11-19T09:48:10;422.95;;;404.00;;
22060;SDS011;11194;48.092;-1.382;2023-11-19T09:50:40;416.00;;;397.85;;
22060;SDS011;11194;48.092;-1.382;2023-11-19T09:53:06;449.13;;;429.38;;
22060;SDS011;11194;48.092;-1.382;2023-11-19T09:55:32;458.30;;;438.08;;
22060;SDS011;11194;48.092;-1.382;2023-11-19T09:57:58;459.08;;;438.50;;
22060;SDS011;11194;48.092;-1.382;2023-11-19T10:00:26;430.40;;;412.00;;
22060;SDS011;11194;48.092;-1.382;2023-11-19T10:02:52;405.80;;;388.67;;
22060;SDS011;11194;48.092;-1.382;2023-11-19T10:05:19;414.48;;;397.48;;
22060;SDS011;11194;48.092;-1.382;2023-11-19T10:07:46;435.92;;;418.02;;
22060;SDS011;11194;48.092;-1.382;2023-11-19T10:10:12;415.70;;;399.33;;
22060;SDS011;11194;48.092;-1.382;2023-11-19T10:12:43;441.00;;;423.60;;
22060;SDS011;11194;48.092;-1.382;2023-11-19T10:15:09;443.55;;;425.73;;
22060;SDS011;11194;48.092;-1.382;2023-11-19T10:17:40;445.85;;;427.58;;
22060;SDS011;11194;48.092;-1.382;2023-11-19T10:20:07;414.20;;;397.92;;
22060;SDS011;11194;48.092;-1.382;2023-11-19T10:22:36;490.83;;;470.30;;
22060;SDS011;11194;48.092;-1.382;2023-11-19T10:25:03;475.65;;;456.02;;
22060;SDS011;11194;48.092;-1.382;2023-11-19T10:27:29;372.85;;;358.45;;
22060;SDS011;11194;48.092;-1.382;2023-11-19T10:29:58;459.90;;;441.13;;
22060;SDS011;11194;48.092;-1.382;2023-11-19T10:32:25;461.08;;;442.27;;
22060;SDS011;11194;48.092;-1.382;2023-11-19T10:34:51;443.63;;;425.77;;
22060;SDS011;11194;48.092;-1.382;2023-11-19T10:37:29;439.10;;;421.08;;
22060;SDS011;11194;48.092;-1.382;2023-11-19T10:39:57;399.67;;;384.13;;
22060;SDS011;11194;48.092;-1.382;2023-11-19T10:42:23;366.30;;;352.25;;
22060;SDS011;11194;48.092;-1.382;2023-11-19T10:44:49;465.15;;;446.35;;
22060;SDS011;11194;48.092;-1.382;2023-11-19T10:47:15;513.92;;;492.23;;
22060;SDS011;11194;48.092;-1.382;2023-11-19T10:49:44;504.77;;;483.40;;
22060;SDS011;11194;48.092;-1.382;2023-11-19T10:52:17;491.13;;;471.10;;
22060;SDS011;11194;48.092;-1.382;2023-11-19T10:54:44;538.50;;;515.25;;
22060;SDS011;11194;48.092;-1.382;2023-11-19T10:57:16;409.20;;;393.25;;
22060;SDS011;11194;48.092;-1.382;2023-11-19T10:59:45;356.15;;;342.48;;
22060;SDS011;11194;48.092;-1.382;2023-11-19T11:02:12;278.33;;;267.95;;
22060;SDS011;11194;48.092;-1.382;2023-11-19T11:04:40;193.20;;;186.15;;
22060;SDS011;11194;48.092;-1.382;2023-11-19T11:07:08;37.40;;;35.92;;
22060;SDS011;11194;48.092;-1.382;2023-11-19T11:09:37;18.25;;;17.52;;
22060;SDS011;11194;48.092;-1.382;2023-11-19T11:12:04;7.85;;;7.55;;
22060;SDS011;11194;48.092;-1.382;2023-11-19T11:14:32;25.95;;;24.92;;
22060;SDS011;11194;48.092;-1.382;2023-11-19T11:17:00;25.08;;;24.08;;
22060;SDS011;11194;48.092;-1.382;2023-11-19T11:19:28;27.05;;;25.98;;
22060;SDS011;11194;48.092;-1.382;2023-11-19T11:21:54;40.47;;;38.88;;
22060;SDS011;11194;48.092;-1.382;2023-11-19T11:29:50;40.25;;;38.65;;
22060;SDS011;11194;48.092;-1.382;2023-11-19T11:35:11;39.63;;;38.03;;
22060;SDS011;11194;48.092;-1.382;2023-11-19T11:37:46;47.70;;;45.80;;
22060;SDS011;11194;48.092;-1.382;2023-11-19T11:40:16;33.92;;;32.58;;
22060;SDS011;11194;48.092;-1.382;2023-11-19T11:42:45;28.65;;;27.55;;
22060;SDS011;11194;48.092;-1.382;2023-11-19T11:45:12;13.55;;;13.05;;
22060;SDS011;11194;48.092;-1.382;2023-11-19T11:55:36;3.08;;;2.97;;
22060;SDS011;11194;48.092;-1.382;2023-11-19T11:58:02;3.80;;;3.70;;
22060;SDS011;11194;48.092;-1.382;2023-11-19T12:02:55;3.42;;;3.33;;
22060;SDS011;11194;48.092;-1.382;2023-11-19T12:05:21;2.45;;;2.35;;
22060;SDS011;11194;48.092;-1.382;2023-11-19T12:07:54;1.60;;;1.60;;
22060;SDS011;11194;48.092;-1.382;2023-11-19T12:10:25;1.58;;;1.58;;
22060;SDS011;11194;48.092;-1.382;2023-11-19T12:12:58;0.93;;;0.93;;
22060;SDS011;11194;48.092;-1.382;2023-11-19T12:15:24;0.82;;;0.82;;
22060;SDS011;11194;48.092;-1.382;2023-11-19T12:17:53;0.60;;;0.60;;
22060;SDS011;11194;48.092;-1.382;2023-11-19T12:20:22;1.10;;;1.10;;
22060;SDS011;11194;48.092;-1.382;2023-11-19T12:22:48;1.65;;;1.65;;
22060;SDS011;11194;48.092;-1.382;2023-11-19T12:25:16;1.95;;;1.92;;
22060;SDS011;11194;48.092;-1.382;2023-11-19T12:27:46;4.95;;;4.75;;
22060;SDS011;11194;48.092;-1.382;2023-11-19T12:30:17;3.08;;;2.97;;
22060;SDS011;11194;48.092;-1.382;2023-11-19T12:32:44;4.22;;;4.13;;
22060;SDS011;11194;48.092;-1.382;2023-11-19T12:35:11;5.10;;;4.90;;
22060;SDS011;11194;48.092;-1.382;2023-11-19T12:37:47;2.83;;;2.72;;
22060;SDS011;11194;48.092;-1.382;2023-11-19T12:42:42;1.60;;;1.60;;
22060;SDS011;11194;48.092;-1.382;2023-11-19T12:45:09;1.10;;;1.10;;
22060;SDS011;11194;48.092;-1.382;2023-11-19T12:47:36;0.52;;;0.52;;
22060;SDS011;11194;48.092;-1.382;2023-11-19T12:50:05;0.50;;;0.50;;
22060;SDS011;11194;48.092;-1.382;2023-11-19T12:52:31;0.40;;;0.40;;
22060;SDS011;11194;48.092;-1.382;2023-11-19T12:54:58;0.50;;;0.50;;
22060;SDS011;11194;48.092;-1.382;2023-11-19T12:57:37;0.38;;;0.38;;
22060;SDS011;11194;48.092;-1.382;2023-11-19T13:00:04;0.40;;;0.40;;
22060;SDS011;11194;48.092;-1.382;2023-11-19T13:02:46;0.45;;;0.45;;
22060;SDS011;11194;48.092;-1.382;2023-11-19T13:05:32;0.50;;;0.50;;
22060;SDS011;11194;48.092;-1.382;2023-11-19T13:08:05;0.40;;;0.40;;
22060;SDS011;11194;48.092;-1.382;2023-11-19T13:10:32;0.40;;;0.40;;
22060;SDS011;11194;48.092;-1.382;2023-11-19T13:12:59;0.80;;;0.80;;
22060;SDS011;11194;48.092;-1.382;2023-11-19T13:15:25;1.00;;;1.00;;
22060;SDS011;11194;48.092;-1.382;2023-11-19T13:17:51;0.50;;;0.50;;
22060;SDS011;11194;48.092;-1.382;2023-11-19T13:20:18;0.50;;;0.50;;
22060;SDS011;11194;48.092;-1.382;2023-11-19T13:25:22;0.30;;;0.30;;
22060;SDS011;11194;48.092;-1.382;2023-11-19T13:27:48;0.40;;;0.40;;
22060;SDS011;11194;48.092;-1.382;2023-11-19T13:30:14;0.20;;;0.20;;
22060;SDS011;11194;48.092;-1.382;2023-11-19T13:32:41;0.30;;;0.30;;
22060;SDS011;11194;48.092;-1.382;2023-11-19T13:35:08;0.20;;;0.20;;
22060;SDS011;11194;48.092;-1.382;2023-11-19T13:37:34;0.20;;;0.20;;
22060;SDS011;11194;48.092;-1.382;2023-11-19T13:40:03;0.10;;;0.10;;
22060;SDS011;11194;48.092;-1.382;2023-11-19T13:42:29;0.10;;;0.10;;
22060;SDS011;11194;48.092;-1.382;2023-11-19T13:44:55;0.10;;;0.10;;
22060;SDS011;11194;48.092;-1.382;2023-11-19T13:47:21;0.20;;;0.20;;
22060;SDS011;11194;48.092;-1.382;2023-11-19T13:49:48;0.10;;;0.10;;
22060;SDS011;11194;48.092;-1.382;2023-11-19T13:52:14;0.20;;;0.20;;
22060;SDS011;11194;48.092;-1.382;2023-11-19T13:54:41;0.20;;;0.20;;
22060;SDS011;11194;48.092;-1.382;2023-11-19T13:57:07;0.30;;;0.30;;
22060;SDS011;11194;48.092;-1.382;2023-11-19T13:59:33;0.20;;;0.20;;
22060;SDS011;11194;48.092;-1.382;2023-11-19T14:01:59;0.20;;;0.20;;
22060;SDS011;11194;48.092;-1.382;2023-11-19T14:04:25;0.20;;;0.20;;
22060;SDS011;11194;48.092;-1.382;2023-11-19T14:06:51;0.20;;;0.20;;
22060;SDS011;11194;48.092;-1.382;2023-11-19T14:09:20;0.20;;;0.20;;
22060;SDS011;11194;48.092;-1.382;2023-11-19T14:11:46;0.20;;;0.20;;
22060;SDS011;11194;48.092;-1.382;2023-11-19T14:14:13;0.20;;;0.20;;
22060;SDS011;11194;48.092;-1.382;2023-11-19T14:16:39;0.20;;;0.20;;
22060;SDS011;11194;48.092;-1.382;2023-11-19T14:19:05;0.22;;;0.22;;
22060;SDS011;11194;48.092;-1.382;2023-11-19T14:21:32;0.30;;;0.30;;